首页
METAR-TAF:

METAR-TAF

机场 :

雅典埃莱夫塞里奥斯·韦尼泽洛斯国际机场

雅典, 希腊

纬度: 37-56N, 经度: 023-56E, 海拔: 94米

当前天气观测

该预报发布于32分钟前的01:20 UTC
风速11节,风向南转西南
温度 14°C
湿度 77%
气压 1009 hPa
能见度10公里或以上
少量云层高于1500英尺
多云层高于3000英尺

METAR: LGAV 230120Z 20011KT 9999 FEW015 BKN030 14/10 Q1009 NOSIG

时间: 03:52 (01:52 UTC)

预报

该预报发布于2小时和52分钟前的23:00 UTC
预报有效从23日的 00点(UTC)到 23日的 24点(UTC)
风速18节,风向
能见度10公里或以上
散云层高于1500英尺
多云层高于3000英尺
几率 30% :
短暂存在
从 23日的 06点(UTC)到 23日的 24点(UTC)
能見度: 5000
散云层高于1600英尺
多云层高于2500英尺
多云层高于7000英尺
几率 30% :
短暂存在
从 23日的 18点(UTC)到 23日的 24点(UTC)
能見度: 4000
散云层高于1200英尺
少量云层高于1800英尺, 积雨云.
多云层高于2000英尺
多云层高于7000英尺
雷暴, 雨
短暂存在
从 23日的 15点(UTC)到 23日的 24点(UTC)
风速18节,风向南转南东,有时为28节阵风

TAF: LGAV 222300Z 2300/2324 19018KT 9999 SCT015 BKN030 PROB30 TEMPO 2306/2324 5000 RA SCT016 BKN025 BKN070 PROB30 TEMPO 2318/2324 4000 TSRA SCT012 FEW018CB BKN020 BKN070 TEMPO 2315/2324 16018G28KT

超过4000个机场的气象观测和天气预报(METAR&TAF报告)。

可查询的气象台以黄色和红色小点在地图上表示。

将鼠标移到小点上方,可查看气象台名称。

然后点击查看天气观测和预报。

如需切换地图:点击带黑十字的绿色按钮放大地图;点击带横线的绿色按钮缩小地图;或者点击绿色箭头查看邻近地区的地图。


METAR-TAF: